Terminal Aerodrome Forecast
Issued by NWS Spokane, WA

Home | Current Version | Previous Version | Text Only | Print | Product List | Glossary On
Versions: 1 2 3 4 5 6 7 8 9 10 11 12 13 14 15 16 17 18 19 20 21 22 23
000
FTUS46 KOTX 251122
TAFLWS
TAF
KLWS 251122Z 2512/2612 VRB04KT P6SM SCT100 BKN150
     FM251400 11004KT P6SM VCSH SCT050 BKN080 OVC120
     FM251800 31008KT P6SM VCSH SCT060 BKN080 OVC150
     FM260100 25004KT P6SM SCT080 BKN150=

USA.gov is the U.S. government's official web portal to all federal, state and local government web resources and services.